Terminal Aerodrome Forecast
Issued by NWS Jackson, MS

Home | Current Version | Previous Version | Text Only | Print | Product List | Glossary On
Versions: 1 2 3 4 5 6 7 8 9 10 11 12 13
000
FTUS44 KJAN 240500
TAFHBG
TAF
KHBG 240522Z 2406/2506 20010G17KT P6SM BKN016
     FM240800 20008G16KT 6SM BR BKN010
     FM241430 30010G17KT P6SM FEW020 SCT250
     FM242300 32004KT P6SM FEW250=

USA.gov is the U.S. government's official web portal to all federal, state and local government web resources and services.